Jacky L O'neal — WDG3892 — position and weather

sailwx.info

Track history (hours):
 
Tides and Currents Weather Stations Pressure Air Temp Water Temp Dewpoint Dewpoint Depression Visibility Wind Speed Wind Dir Waves Ship Positions

Jacky L O'neal

Owner: American Commercial Lines LLC, Jeffersonville, IN. More information available from US FCC via Universal Licensing System and Coast Guard Vessel Documentation Center.

Last reported at 2016-May-27 14:18 UTC. Time now 2016-Jun-01 01:49 UTC.
Position N 32°40' W 091°07'.

Length 55 m; draft 3.4 m.

Type: Tow > 200 m length. MMSI: 367530760.

Date/timePositionNaut miles runAvg speedWind from/ knotsBaromVisibWave heightAir tempDewpointWater temp
2016-May-27 14:18N 32°40' W 091°07'3 4.2
2016-May-27 13:33N 32°38' W 091°09'4 4.2
2016-May-27 12:33N 32°34' W 091°06'5 4.8
2016-May-27 11:33N 32°29' W 091°07'4 4.4
2016-May-27 10:33N 32°26' W 091°03'4 3.9
2016-May-27 09:33N 32°23' W 090°60'3 3.1
2016-May-27 08:33N 32°21' W 090°58'3 3.5
2016-May-27 07:33N 32°19' W 090°54'3 3.3
2016-May-27 06:33N 32°17' W 090°57'3 3.3
2016-May-27 05:33N 32°14' W 090°59'4 4.2
2016-May-27 04:33N 32°10' W 091°00'4 3.5
2016-May-27 03:31N 32°08' W 091°04'2 2.5
2016-May-27 02:33N 32°06' W 091°05'3 3.4
2016-May-27 01:33N 32°03' W 091°04'9 4.3
2016-May-26 23:33N 31°57' W 091°11'  
2016-May-23 06:04N 31°43' W 091°23'5 8.9
2016-May-23 05:28N 31°48' W 091°21'15 7.7
2016-May-23 03:32N 31°59' W 091°09'7 7.1
2016-May-23 02:33N 32°05' W 091°04'3 3.0
2016-May-23 01:33N 32°08' W 091°04'7 7.2
2016-May-23 00:33N 32°14' W 090°59'8 7.8
2016-May-22 23:33N 32°21' W 090°55'7 7.3
2016-May-22 22:33N 32°26' W 091°01'8 8.5
2016-May-22 21:33N 32°33' W 091°06'  
Track history (hours):
 
Tides and Currents Weather Stations Pressure Air Temp Water Temp Dewpoint Dewpoint Depression Visibility Wind Speed Wind Dir Waves Ship Positions

Jacky L O'neal

Owner: American Commercial Lines LLC, Jeffersonville, IN. More information available from US FCC via Universal Licensing System and Coast Guard Vessel Documentation Center.

Last reported at 2016-May-27 14:18 UTC. Time now 2016-Jun-01 01:49 UTC.
Position N 32°40' W 091°07'.

Length 55 m; draft 3.4 m.

Type: Tow > 200 m length. MMSI: 367530760.

Date/timePositionNaut miles runAvg speedWind from/ knotsBaromVisibWave heightAir tempDewpointWater temp
2016-May-27 14:18N 32°40' W 091°07'3 4.2
2016-May-27 13:33N 32°38' W 091°09'4 4.2
2016-May-27 12:33N 32°34' W 091°06'5 4.8
2016-May-27 11:33N 32°29' W 091°07'4 4.4
2016-May-27 10:33N 32°26' W 091°03'4 3.9
2016-May-27 09:33N 32°23' W 090°60'3 3.1
2016-May-27 08:33N 32°21' W 090°58'3 3.5
2016-May-27 07:33N 32°19' W 090°54'3 3.3
2016-May-27 06:33N 32°17' W 090°57'3 3.3
2016-May-27 05:33N 32°14' W 090°59'4 4.2
2016-May-27 04:33N 32°10' W 091°00'4 3.5
2016-May-27 03:31N 32°08' W 091°04'2 2.5
2016-May-27 02:33N 32°06' W 091°05'3 3.4
2016-May-27 01:33N 32°03' W 091°04'9 4.3
2016-May-26 23:33N 31°57' W 091°11'  
2016-May-23 06:04N 31°43' W 091°23'5 8.9
2016-May-23 05:28N 31°48' W 091°21'15 7.7
2016-May-23 03:32N 31°59' W 091°09'7 7.1
2016-May-23 02:33N 32°05' W 091°04'3 3.0
2016-May-23 01:33N 32°08' W 091°04'7 7.2
2016-May-23 00:33N 32°14' W 090°59'8 7.8
2016-May-22 23:33N 32°21' W 090°55'7 7.3
2016-May-22 22:33N 32°26' W 091°01'8 8.5
2016-May-22 21:33N 32°33' W 091°06'  

Dump ship's entire track history